aviador You're here:

KLNK Decoded Metar

LINCOLN in NE, USA
Report Time2017-09-25 19:54:00
UTC Time2017-09-25 20:31:49
Flight Rules ifr IFR
Wind030° at 06 kt
W.Decomp.*RWY 36: 5.5 kt HW 2.4 kt RCW
RWY 35: 5.0 kt HW 3.4 kt RCW
RWY 32: 2.6 kt HW 5.4 kt RCW
W.Rank030° ranks 18
Current wind is below 030° avg. (8.8)
Visibility9999 m
Phenomena:N/A
Clouds:Overcast 006 Hf
Expected CloudBase > 400 ft AGL from Temp-Dew spread
Ceiling600 ft
Temp17°C (ISA +4)
Dew Point16°C (94% RH)
AAT16.8°C
QNH1014 hPa
Density Alt1,923 ft
Elevation1,194 ft
Report Wrong Elevation
Raw Report
KLNK 251954Z 03006KT 10SM OVC006 17/16 A2995 RMK AO2 RAE41 SLP136
P0002 T01670156=

Extra information for KLNK:More info

Metar Taf Metar & Taf Last 4 Metars F.Rules Stats Wind Profile Meteogram Temp Stats Airport Information Weather charts Add Link Nearby VenuesMetar ALERT Operation Metar Decoded Social comments

AIRNAV info for KLNK